CSB821 KGSO-KRIC
Flight info
| Callsign | CSB821 |
|---|---|
| Flight time | 0h 30m |
| Altitude | 16000 |
| Route | JEANY1 MCDON SBV V20 NUTTS KELCE DUCXS5 |
| Aircraft | B763/H-SDE3FGHIJ2J3J5M3RWXY/LB1D1 |
Departure
| Time | 2026-05-06 10:37 |
|---|---|
| Airport | Piedmont Triad International Airport (KGSO) |
Arrival
| Time | 2026-05-06 11:08 |
|---|---|
| Airport | Richmond International Airport (KRIC) |
| Time | Latitude | Longitude | Altitude | Speed | Heading |
|---|---|---|---|---|---|
| 2026-05-06 10:22 | 36.11068 | -79.92543 | 895 ft | 0 kts | 317° |
| 2026-05-06 10:29 | 36.11059 | -79.92531 | 894 ft | 2 kts | 310° |
| 2026-05-06 10:30 | 36.11053 | -79.92522 | 894 ft | 2 kts | 315° |
| 2026-05-06 10:30 | 36.11044 | -79.92507 | 893 ft | 2 kts | 290° |
| 2026-05-06 10:30 | 36.11040 | -79.92489 | 893 ft | 2 kts | 272° |
| 2026-05-06 10:30 | 36.11042 | -79.92471 | 893 ft | 2 kts | 252° |
| 2026-05-06 10:31 | 36.11048 | -79.92454 | 893 ft | 2 kts | 233° |
| 2026-05-06 10:31 | 36.11053 | -79.92448 | 892 ft | 1 kts | 225° |
| 2026-05-06 10:31 | 36.11054 | -79.92446 | 892 ft | 0 kts | 225° |
| 2026-05-06 10:33 | 36.11048 | -79.92453 | 892 ft | 2 kts | 225° |
| 2026-05-06 10:33 | 36.11031 | -79.92475 | 892 ft | 5 kts | 225° |
| 2026-05-06 10:33 | 36.10993 | -79.92514 | 892 ft | 6 kts | 206° |
| 2026-05-06 10:33 | 36.10960 | -79.92501 | 892 ft | 5 kts | 135° |
| 2026-05-06 10:34 | 36.10943 | -79.92462 | 892 ft | 4 kts | 100° |
| 2026-05-06 10:34 | 36.10954 | -79.92426 | 892 ft | 6 kts | 54° |
| 2026-05-06 10:34 | 36.10995 | -79.92372 | 892 ft | 10 kts | 46° |
| 2026-05-06 10:34 | 36.11049 | -79.92302 | 892 ft | 12 kts | 46° |
| 2026-05-06 10:35 | 36.11110 | -79.92224 | 892 ft | 9 kts | 46° |
| 2026-05-06 10:35 | 36.11122 | -79.92179 | 892 ft | 5 kts | 120° |
| 2026-05-06 10:35 | 36.11091 | -79.92138 | 892 ft | 8 kts | 137° |
| 2026-05-06 10:35 | 36.11042 | -79.92083 | 891 ft | 10 kts | 137° |
| 2026-05-06 10:36 | 36.10990 | -79.92065 | 891 ft | 7 kts | 215° |
| 2026-05-06 10:36 | 36.10979 | -79.92078 | 891 ft | 0 kts | 226° |
| 2026-05-06 10:36 | 36.10887 | -79.92194 | 891 ft | 45 kts | 225° |
| 2026-05-06 10:36 | 36.10540 | -79.92638 | 892 ft | 97 kts | 225° |
| 2026-05-06 10:37 | 36.09946 | -79.93394 | 897 ft | 143 kts | 226° |
| 2026-05-06 10:37 | 36.09170 | -79.94384 | 1063 ft | 170 kts | 224° |
| 2026-05-06 10:37 | 36.08351 | -79.95395 | 1760 ft | 167 kts | 222° |
| 2026-05-06 10:37 | 36.07554 | -79.96378 | 2527 ft | 161 kts | 225° |
| 2026-05-06 10:38 | 36.07011 | -79.97617 | 2941 ft | 178 kts | 259° |
| 2026-05-06 10:38 | 36.07328 | -79.99163 | 3415 ft | 206 kts | 295° |
| 2026-05-06 10:38 | 36.08530 | -80.00414 | 3761 ft | 249 kts | 330° |
| 2026-05-06 10:38 | 36.10329 | -80.00751 | 4355 ft | 279 kts | 1° |
| 2026-05-06 10:39 | 36.12246 | -79.99944 | 4973 ft | 302 kts | 31° |
| 2026-05-06 10:39 | 36.13774 | -79.98155 | 5760 ft | 310 kts | 47° |
| 2026-05-06 10:39 | 36.15277 | -79.96249 | 6608 ft | 313 kts | 41° |
| 2026-05-06 10:39 | 36.16846 | -79.94393 | 7486 ft | 314 kts | 42° |
| 2026-05-06 10:40 | 36.18173 | -79.92233 | 8306 ft | 319 kts | 64° |
| 2026-05-06 10:40 | 36.19013 | -79.89731 | 9121 ft | 321 kts | 65° |
| 2026-05-06 10:40 | 36.19985 | -79.87188 | 9916 ft | 324 kts | 62° |
| 2026-05-06 10:40 | 36.21020 | -79.84665 | 10518 ft | 335 kts | 61° |
| 2026-05-06 10:41 | 36.22138 | -79.82036 | 10921 ft | 354 kts | 60° |
| 2026-05-06 10:41 | 36.23315 | -79.79318 | 11401 ft | 369 kts | 60° |
| 2026-05-06 10:41 | 36.24568 | -79.76444 | 11772 ft | 389 kts | 60° |
| 2026-05-06 10:41 | 36.25883 | -79.73434 | 12231 ft | 405 kts | 60° |
| 2026-05-06 10:42 | 36.27257 | -79.70294 | 12723 ft | 421 kts | 60° |
| 2026-05-06 10:42 | 36.28672 | -79.67060 | 13557 ft | 425 kts | 60° |
| 2026-05-06 10:42 | 36.30071 | -79.63859 | 14402 ft | 429 kts | 59° |
| 2026-05-06 10:42 | 36.31517 | -79.60551 | 15083 ft | 436 kts | 59° |
| 2026-05-06 10:43 | 36.32963 | -79.57238 | 15833 ft | 441 kts | 59° |
| 2026-05-06 10:43 | 36.34447 | -79.53845 | 15992 ft | 458 kts | 59° |
| 2026-05-06 10:43 | 36.35978 | -79.50338 | 15992 ft | 471 kts | 59° |
| 2026-05-06 10:44 | 36.39103 | -79.43151 | 15986 ft | 469 kts | 59° |
| 2026-05-06 10:44 | 36.40665 | -79.39570 | 15989 ft | 468 kts | 58° |
| 2026-05-06 10:44 | 36.42449 | -79.36223 | 16000 ft | 465 kts | 48° |
| 2026-05-06 10:44 | 36.44609 | -79.33225 | 15993 ft | 466 kts | 44° |
| 2026-05-06 10:45 | 36.46735 | -79.30319 | 15982 ft | 466 kts | 46° |
| 2026-05-06 10:45 | 36.48860 | -79.27318 | 15981 ft | 465 kts | 45° |
| 2026-05-06 10:45 | 36.51033 | -79.24292 | 15980 ft | 464 kts | 45° |
| 2026-05-06 10:45 | 36.53188 | -79.21300 | 15986 ft | 464 kts | 45° |
| 2026-05-06 10:46 | 36.55349 | -79.18304 | 15984 ft | 465 kts | 45° |
| 2026-05-06 10:46 | 36.57537 | -79.15275 | 15980 ft | 464 kts | 45° |
| 2026-05-06 10:46 | 36.59700 | -79.12279 | 15980 ft | 464 kts | 45° |
| 2026-05-06 10:46 | 36.61867 | -79.09279 | 15976 ft | 465 kts | 45° |
| 2026-05-06 10:47 | 36.64035 | -79.06273 | 15978 ft | 466 kts | 45° |
| 2026-05-06 10:47 | 36.66225 | -79.03238 | 15972 ft | 466 kts | 45° |
| 2026-05-06 10:47 | 36.68359 | -79.00189 | 15965 ft | 462 kts | 49° |
| 2026-05-06 10:47 | 36.70147 | -78.96951 | 15965 ft | 444 kts | 59° |
| 2026-05-06 10:48 | 36.71630 | -78.93625 | 15975 ft | 437 kts | 58° |
| 2026-05-06 10:48 | 36.73193 | -78.90353 | 15975 ft | 439 kts | 57° |
| 2026-05-06 10:48 | 36.74781 | -78.87056 | 15979 ft | 443 kts | 56° |
| 2026-05-06 10:48 | 36.76400 | -78.83757 | 15974 ft | 443 kts | 57° |
| 2026-05-06 10:49 | 36.78004 | -78.80503 | 15967 ft | 441 kts | 56° |
| 2026-05-06 10:49 | 36.79640 | -78.77193 | 15972 ft | 441 kts | 56° |
| 2026-05-06 10:49 | 36.81249 | -78.73946 | 15974 ft | 442 kts | 56° |
| 2026-05-06 10:49 | 36.82869 | -78.70677 | 15977 ft | 443 kts | 56° |
| 2026-05-06 10:50 | 36.84507 | -78.67374 | 15980 ft | 442 kts | 56° |
| 2026-05-06 10:50 | 36.86112 | -78.64134 | 15974 ft | 438 kts | 56° |
| 2026-05-06 10:50 | 36.87689 | -78.60944 | 15844 ft | 429 kts | 56° |
| 2026-05-06 10:50 | 36.89241 | -78.57807 | 15606 ft | 425 kts | 56° |
| 2026-05-06 10:51 | 36.90786 | -78.54680 | 15367 ft | 418 kts | 57° |
| 2026-05-06 10:51 | 36.92296 | -78.51618 | 15135 ft | 418 kts | 56° |
| 2026-05-06 10:51 | 36.93834 | -78.48503 | 14905 ft | 418 kts | 57° |
| 2026-05-06 10:51 | 36.95338 | -78.45448 | 14670 ft | 416 kts | 57° |
| 2026-05-06 10:52 | 36.96857 | -78.42366 | 14434 ft | 412 kts | 57° |
| 2026-05-06 10:52 | 36.98358 | -78.39312 | 14199 ft | 411 kts | 57° |
| 2026-05-06 10:52 | 36.99856 | -78.36262 | 13970 ft | 410 kts | 57° |
| 2026-05-06 10:52 | 37.01214 | -78.33495 | 13805 ft | 408 kts | 58° |
| 2026-05-06 10:53 | 37.02697 | -78.30470 | 13632 ft | 408 kts | 58° |
| 2026-05-06 10:53 | 37.04207 | -78.27387 | 13350 ft | 411 kts | 58° |
| 2026-05-06 10:53 | 37.05700 | -78.24335 | 13037 ft | 407 kts | 58° |
| 2026-05-06 10:53 | 37.07178 | -78.21308 | 12626 ft | 403 kts | 59° |
| 2026-05-06 10:54 | 37.08460 | -78.18236 | 12321 ft | 401 kts | 66° |
| 2026-05-06 10:54 | 37.09646 | -78.15100 | 12017 ft | 399 kts | 65° |
| 2026-05-06 10:54 | 37.10783 | -78.12102 | 11706 ft | 394 kts | 65° |
| 2026-05-06 10:54 | 37.11993 | -78.08909 | 11422 ft | 395 kts | 65° |
| 2026-05-06 10:55 | 37.13160 | -78.05824 | 11048 ft | 391 kts | 65° |
| 2026-05-06 10:55 | 37.14274 | -78.02889 | 10978 ft | 375 kts | 65° |
| 2026-05-06 10:55 | 37.15368 | -77.99988 | 10979 ft | 358 kts | 65° |
| 2026-05-06 10:55 | 37.16369 | -77.97335 | 10977 ft | 343 kts | 65° |
| 2026-05-06 10:56 | 37.17366 | -77.94698 | 10972 ft | 329 kts | 65° |
| 2026-05-06 10:56 | 37.18343 | -77.92146 | 10978 ft | 323 kts | 62° |
| 2026-05-06 10:56 | 37.19544 | -77.89760 | 10819 ft | 330 kts | 56° |
| 2026-05-06 10:56 | 37.20867 | -77.87283 | 10233 ft | 340 kts | 56° |
| 2026-05-06 10:57 | 37.22163 | -77.84849 | 10139 ft | 328 kts | 56° |
| 2026-05-06 10:57 | 37.23415 | -77.82501 | 10099 ft | 315 kts | 56° |
| 2026-05-06 10:57 | 37.24617 | -77.80248 | 9923 ft | 310 kts | 56° |
| 2026-05-06 10:57 | 37.25815 | -77.78002 | 9455 ft | 310 kts | 56° |
| 2026-05-06 10:58 | 37.27020 | -77.75742 | 8945 ft | 309 kts | 56° |
| 2026-05-06 10:58 | 37.28206 | -77.73518 | 8471 ft | 306 kts | 56° |
| 2026-05-06 10:58 | 37.29397 | -77.71283 | 7989 ft | 304 kts | 56° |
| 2026-05-06 10:58 | 37.30559 | -77.69100 | 7528 ft | 303 kts | 56° |
| 2026-05-06 10:59 | 37.31833 | -77.66997 | 7043 ft | 300 kts | 39° |
| 2026-05-06 10:59 | 37.33600 | -77.65666 | 6475 ft | 293 kts | 9° |
| 2026-05-06 10:59 | 37.35590 | -77.65360 | 6027 ft | 282 kts | 354° |
| 2026-05-06 10:59 | 37.37551 | -77.65326 | 5487 ft | 284 kts | 354° |
| 2026-05-06 11:00 | 37.39539 | -77.65320 | 5024 ft | 284 kts | 353° |
| 2026-05-06 11:00 | 37.41520 | -77.65345 | 4629 ft | 281 kts | 352° |
| 2026-05-06 11:00 | 37.43451 | -77.65102 | 4332 ft | 284 kts | 15° |
| 2026-05-06 11:00 | 37.45226 | -77.63956 | 4119 ft | 283 kts | 30° |
| 2026-05-06 11:01 | 37.46881 | -77.62635 | 3875 ft | 282 kts | 29° |
| 2026-05-06 11:01 | 37.48543 | -77.61293 | 3677 ft | 280 kts | 30° |
| 2026-05-06 11:01 | 37.50186 | -77.59959 | 3526 ft | 280 kts | 30° |
| 2026-05-06 11:01 | 37.51845 | -77.58631 | 3391 ft | 284 kts | 29° |
| 2026-05-06 11:02 | 37.53531 | -77.57287 | 3254 ft | 284 kts | 30° |
| 2026-05-06 11:02 | 37.55187 | -77.55971 | 3094 ft | 281 kts | 29° |
| 2026-05-06 11:02 | 37.56852 | -77.54656 | 3023 ft | 280 kts | 29° |
| 2026-05-06 11:02 | 37.58503 | -77.53349 | 2983 ft | 276 kts | 29° |
| 2026-05-06 11:03 | 37.60133 | -77.52065 | 2984 ft | 277 kts | 30° |
| 2026-05-06 11:03 | 37.61686 | -77.50600 | 2956 ft | 283 kts | 50° |
| 2026-05-06 11:03 | 37.62807 | -77.48579 | 2888 ft | 274 kts | 59° |
| 2026-05-06 11:03 | 37.63786 | -77.46604 | 2822 ft | 257 kts | 62° |
| 2026-05-06 11:04 | 37.64286 | -77.44554 | 2670 ft | 234 kts | 98° |
| 2026-05-06 11:04 | 37.64089 | -77.42596 | 2561 ft | 216 kts | 111° |
| 2026-05-06 11:04 | 37.63417 | -77.41080 | 2442 ft | 186 kts | 155° |
| 2026-05-06 11:04 | 37.62285 | -77.40411 | 2387 ft | 176 kts | 166° |
| 2026-05-06 11:05 | 37.61155 | -77.39720 | 2234 ft | 180 kts | 160° |
| 2026-05-06 11:05 | 37.60110 | -77.38969 | 2048 ft | 163 kts | 158° |
| 2026-05-06 11:05 | 37.59175 | -77.38271 | 1863 ft | 150 kts | 158° |
| 2026-05-06 11:05 | 37.58278 | -77.37588 | 1670 ft | 150 kts | 156° |
| 2026-05-06 11:06 | 37.57373 | -77.36884 | 1481 ft | 152 kts | 156° |
| 2026-05-06 11:06 | 37.56482 | -77.36179 | 1280 ft | 149 kts | 155° |
| 2026-05-06 11:06 | 37.55609 | -77.35487 | 1090 ft | 149 kts | 155° |
| 2026-05-06 11:06 | 37.54745 | -77.34802 | 911 ft | 150 kts | 154° |
| 2026-05-06 11:07 | 37.53851 | -77.34096 | 716 ft | 152 kts | 152° |
| 2026-05-06 11:07 | 37.52954 | -77.33374 | 525 ft | 151 kts | 154° |
| 2026-05-06 11:07 | 37.52050 | -77.32661 | 308 ft | 154 kts | 152° |
| 2026-05-06 11:07 | 37.51144 | -77.31937 | 170 ft | 149 kts | 148° |
| 2026-05-06 11:08 | 37.50480 | -77.31409 | 166 ft | 70 kts | 148° |
| 2026-05-06 11:08 | 37.50203 | -77.31188 | 165 ft | 37 kts | 148° |
| 2026-05-06 11:08 | 37.50066 | -77.31078 | 165 ft | 10 kts | 140° |
| 2026-05-06 11:08 | 37.50065 | -77.31015 | 165 ft | 7 kts | 59° |
| 2026-05-06 11:09 | 37.50097 | -77.30952 | 164 ft | 8 kts | 57° |
| 2026-05-06 11:09 | 37.50138 | -77.30898 | 164 ft | 7 kts | 15° |
| 2026-05-06 11:09 | 37.50187 | -77.30922 | 164 ft | 9 kts | 327° |
| 2026-05-06 11:09 | 37.50263 | -77.30983 | 165 ft | 15 kts | 327° |
| 2026-05-06 11:10 | 37.50375 | -77.31073 | 165 ft | 22 kts | 328° |
| 2026-05-06 11:10 | 37.50523 | -77.31191 | 165 ft | 26 kts | 327° |
| 2026-05-06 11:10 | 37.50681 | -77.31319 | 165 ft | 27 kts | 327° |
| 2026-05-06 11:10 | 37.50840 | -77.31445 | 166 ft | 27 kts | 328° |
| 2026-05-06 11:11 | 37.50999 | -77.31572 | 166 ft | 26 kts | 327° |
| 2026-05-06 11:11 | 37.51148 | -77.31691 | 168 ft | 26 kts | 327° |
| 2026-05-06 11:11 | 37.51302 | -77.31814 | 169 ft | 26 kts | 327° |
| 2026-05-06 11:11 | 37.51450 | -77.31936 | 170 ft | 21 kts | 327° |
| 2026-05-06 11:12 | 37.51538 | -77.32004 | 171 ft | 9 kts | 328° |
| 2026-05-06 11:12 | 37.51583 | -77.31999 | 171 ft | 7 kts | 46° |
| 2026-05-06 11:12 | 37.51620 | -77.31958 | 171 ft | 7 kts | 47° |
| 2026-05-06 11:12 | 37.51643 | -77.31920 | 171 ft | 2 kts | 57° |
| 2026-05-06 11:13 | 37.51645 | -77.31915 | 171 ft | 0 kts | 57° |